sensor_id;sensor_type;location;lat;lon;timestamp;pressure;altitude;pressure_sealevel;temperature;humidity
8047;BME280;67150;42.516;23.358;2023-04-07T00:00:57;87943.56;;;4.52;56.34
8047;BME280;67150;42.516;23.358;2023-04-07T00:03:24;87938.75;;;4.49;56.24
8047;BME280;67150;42.516;23.358;2023-04-07T00:05:52;87946.16;;;4.51;56.15
8047;BME280;67150;42.516;23.358;2023-04-07T00:08:19;87941.88;;;4.53;56.17
8047;BME280;67150;42.516;23.358;2023-04-07T00:10:48;87943.84;;;4.48;56.24
8047;BME280;67150;42.516;23.358;2023-04-07T00:13:15;87947.66;;;4.53;56.16
8047;BME280;67150;42.516;23.358;2023-04-07T00:15:42;87945.97;;;4.54;56.45
8047;BME280;67150;42.516;23.358;2023-04-07T00:18:09;87944.28;;;4.55;56.27
8047;BME280;67150;42.516;23.358;2023-04-07T00:20:37;87941.97;;;4.51;56.17
8047;BME280;67150;42.516;23.358;2023-04-07T00:23:04;87950.25;;;4.52;56.37
8047;BME280;67150;42.516;23.358;2023-04-07T00:25:31;87942.69;;;4.53;56.50
8047;BME280;67150;42.516;23.358;2023-04-07T00:28:00;87946.78;;;4.55;56.35
8047;BME280;67150;42.516;23.358;2023-04-07T00:30:28;87935.38;;;4.50;56.32
8047;BME280;67150;42.516;23.358;2023-04-07T00:32:55;87943.66;;;4.51;56.44
8047;BME280;67150;42.516;23.358;2023-04-07T00:35:22;87945.34;;;4.50;56.21
8047;BME280;67150;42.516;23.358;2023-04-07T00:37:50;87945.53;;;4.47;56.23
8047;BME280;67150;42.516;23.358;2023-04-07T00:40:17;87939.56;;;4.50;56.47
8047;BME280;67150;42.516;23.358;2023-04-07T00:42:44;87943.03;;;4.47;56.17
8047;BME280;67150;42.516;23.358;2023-04-07T00:45:13;87941.41;;;4.46;56.25
8047;BME280;67150;42.516;23.358;2023-04-07T00:47:40;87941.53;;;4.45;56.50
8047;BME280;67150;42.516;23.358;2023-04-07T00:50:09;87940.53;;;4.47;56.08
8047;BME280;67150;42.516;23.358;2023-04-07T00:52:36;87941.78;;;4.55;56.17
8047;BME280;67150;42.516;23.358;2023-04-07T00:55:04;87938.84;;;4.48;56.61
8047;BME280;67150;42.516;23.358;2023-04-07T00:57:32;87942.34;;;4.45;56.60
8047;BME280;67150;42.516;23.358;2023-04-07T00:59:59;87946.34;;;4.48;56.60
8047;BME280;67150;42.516;23.358;2023-04-07T01:02:32;87945.53;;;4.47;56.51
8047;BME280;67150;42.516;23.358;2023-04-07T01:05:06;87940.34;;;4.50;56.38
8047;BME280;67150;42.516;23.358;2023-04-07T01:07:43;87939.03;;;4.45;56.34
8047;BME280;67150;42.516;23.358;2023-04-07T01:10:24;87937.41;;;4.44;56.74
8047;BME280;67150;42.516;23.358;2023-04-07T01:13:01;87934.31;;;4.40;56.59
8047;BME280;67150;42.516;23.358;2023-04-07T01:15:33;87935.72;;;4.44;56.38
8047;BME280;67150;42.516;23.358;2023-04-07T01:18:07;87938.03;;;4.47;56.66
8047;BME280;67150;42.516;23.358;2023-04-07T01:20:37;87939.91;;;4.44;56.71
8047;BME280;67150;42.516;23.358;2023-04-07T01:23:06;87940.03;;;4.42;56.29
8047;BME280;67150;42.516;23.358;2023-04-07T01:25:53;87935.41;;;4.36;56.85
8047;BME280;67150;42.516;23.358;2023-04-07T01:29:06;87933.34;;;4.43;56.61
8047;BME280;67150;42.516;23.358;2023-04-07T01:31:40;87926.13;;;4.38;56.26
8047;BME280;67150;42.516;23.358;2023-04-07T01:34:09;87928.63;;;4.38;56.54
8047;BME280;67150;42.516;23.358;2023-04-07T01:36:37;87926.28;;;4.35;56.71
8047;BME280;67150;42.516;23.358;2023-04-07T01:39:06;87924.72;;;4.34;56.61
8047;BME280;67150;42.516;23.358;2023-04-07T01:41:33;87925.06;;;4.42;56.33
8047;BME280;67150;42.516;23.358;2023-04-07T01:44:01;87926.22;;;4.37;56.78
8047;BME280;67150;42.516;23.358;2023-04-07T01:46:29;87923.09;;;4.33;56.30
8047;BME280;67150;42.516;23.358;2023-04-07T01:48:58;87925.41;;;4.36;56.76
8047;BME280;67150;42.516;23.358;2023-04-07T01:51:28;87924.31;;;4.40;56.23
8047;BME280;67150;42.516;23.358;2023-04-07T01:53:58;87927.22;;;4.34;56.77
8047;BME280;67150;42.516;23.358;2023-04-07T01:56:25;87915.69;;;4.32;56.67
8047;BME280;67150;42.516;23.358;2023-04-07T01:58:53;87912.50;;;4.30;56.96
8047;BME280;67150;42.516;23.358;2023-04-07T02:01:20;87915.81;;;4.30;56.72
8047;BME280;67150;42.516;23.358;2023-04-07T02:03:53;87915.88;;;4.29;56.80
8047;BME280;67150;42.516;23.358;2023-04-07T02:06:27;87914.00;;;4.32;56.79
8047;BME280;67150;42.516;23.358;2023-04-07T02:09:04;87915.81;;;4.30;56.49
8047;BME280;67150;42.516;23.358;2023-04-07T02:11:35;87924.97;;;4.30;56.81
8047;BME280;67150;42.516;23.358;2023-04-07T02:14:04;87914.28;;;4.28;56.88
8047;BME280;67150;42.516;23.358;2023-04-07T02:16:34;87915.09;;;4.28;56.87
8047;BME280;67150;42.516;23.358;2023-04-07T02:19:01;87910.81;;;4.30;56.76
8047;BME280;67150;42.516;23.358;2023-04-07T02:21:32;87916.88;;;4.26;56.68
8047;BME280;67150;42.516;23.358;2023-04-07T02:24:00;87915.81;;;4.30;56.57
8047;BME280;67150;42.516;23.358;2023-04-07T02:26:32;87923.47;;;4.27;56.67
8047;BME280;67150;42.516;23.358;2023-04-07T02:29:00;87911.69;;;4.29;56.52
8047;BME280;67150;42.516;23.358;2023-04-07T02:31:27;87912.69;;;4.27;56.54
8047;BME280;67150;42.516;23.358;2023-04-07T02:33:54;87913.38;;;4.29;56.55
8047;BME280;67150;42.516;23.358;2023-04-07T02:36:22;87906.63;;;4.31;56.48
8047;BME280;67150;42.516;23.358;2023-04-07T02:38:50;87911.69;;;4.29;56.43
8047;BME280;67150;42.516;23.358;2023-04-07T02:41:18;87911.00;;;4.27;56.60
8047;BME280;67150;42.516;23.358;2023-04-07T02:43:46;87906.09;;;4.26;56.55
8047;BME280;67150;42.516;23.358;2023-04-07T02:46:13;87908.50;;;4.27;56.21
8047;BME280;67150;42.516;23.358;2023-04-07T02:48:40;87908.56;;;4.26;56.53
8047;BME280;67150;42.516;23.358;2023-04-07T02:51:07;87905.50;;;4.22;56.56
8047;BME280;67150;42.516;23.358;2023-04-07T02:53:35;87915.47;;;4.22;56.19
8047;BME280;67150;42.516;23.358;2023-04-07T02:56:04;87903.00;;;4.22;56.41
8047;BME280;67150;42.516;23.358;2023-04-07T02:58:31;87903.88;;;4.21;56.12
8047;BME280;67150;42.516;23.358;2023-04-07T03:00:58;87910.28;;;4.25;55.96
8047;BME280;67150;42.516;23.358;2023-04-07T03:03:26;87906.56;;;4.18;56.20
8047;BME280;67150;42.516;23.358;2023-04-07T03:05:53;87911.47;;;4.20;56.29
8047;BME280;67150;42.516;23.358;2023-04-07T03:08:20;87900.94;;;4.15;56.22
8047;BME280;67150;42.516;23.358;2023-04-07T03:10:47;87907.97;;;4.22;56.03
8047;BME280;67150;42.516;23.358;2023-04-07T03:13:16;87903.06;;;4.21;56.33
8047;BME280;67150;42.516;23.358;2023-04-07T03:15:44;87907.19;;;4.22;55.96
8047;BME280;67150;42.516;23.358;2023-04-07T03:18:12;87906.09;;;4.12;56.33
8047;BME280;67150;42.516;23.358;2023-04-07T03:20:39;87903.34;;;4.16;56.10
8047;BME280;67150;42.516;23.358;2023-04-07T03:23:07;87903.19;;;4.19;56.28
8047;BME280;67150;42.516;23.358;2023-04-07T03:25:36;87908.34;;;4.16;56.40
8047;BME280;67150;42.516;23.358;2023-04-07T03:28:03;87907.59;;;4.14;56.47
8047;BME280;67150;42.516;23.358;2023-04-07T03:30:32;87908.69;;;4.10;56.47
8047;BME280;67150;42.516;23.358;2023-04-07T03:32:59;87906.91;;;4.12;56.40
8047;BME280;67150;42.516;23.358;2023-04-07T03:35:27;87904.34;;;4.14;56.02
8047;BME280;67150;42.516;23.358;2023-04-07T03:37:54;87902.81;;;4.11;56.23
8047;BME280;67150;42.516;23.358;2023-04-07T03:40:21;87909.22;;;4.15;56.00
8047;BME280;67150;42.516;23.358;2023-04-07T03:42:49;87912.94;;;4.08;56.05
8047;BME280;67150;42.516;23.358;2023-04-07T03:45:17;87916.34;;;4.07;56.27
8047;BME280;67150;42.516;23.358;2023-04-07T03:47:45;87912.25;;;4.06;55.93
8047;BME280;67150;42.516;23.358;2023-04-07T03:50:12;87920.97;;;4.13;55.70
8047;BME280;67150;42.516;23.358;2023-04-07T03:52:40;87924.53;;;4.09;55.79
8047;BME280;67150;42.516;23.358;2023-04-07T03:55:08;87931.13;;;4.10;56.06
8047;BME280;67150;42.516;23.358;2023-04-07T03:57:35;87929.69;;;4.06;56.04
8047;BME280;67150;42.516;23.358;2023-04-07T04:00:04;87925.88;;;4.01;55.96
8047;BME280;67150;42.516;23.358;2023-04-07T04:02:31;87939.66;;;4.06;56.10
8047;BME280;67150;42.516;23.358;2023-04-07T04:05:00;87934.69;;;4.06;56.11
8047;BME280;67150;42.516;23.358;2023-04-07T04:07:27;87938.50;;;4.12;55.85
8047;BME280;67150;42.516;23.358;2023-04-07T04:09:54;87938.69;;;4.09;56.22
8047;BME280;67150;42.516;23.358;2023-04-07T04:12:22;87944.47;;;4.09;55.66
8047;BME280;67150;42.516;23.358;2023-04-07T04:14:49;87939.13;;;4.15;55.99
8047;BME280;67150;42.516;23.358;2023-04-07T04:17:16;87937.69;;;4.11;55.93
8047;BME280;67150;42.516;23.358;2023-04-07T04:19:43;87941.28;;;4.07;55.65
8047;BME280;67150;42.516;23.358;2023-04-07T04:22:12;87945.91;;;4.13;55.62
8047;BME280;67150;42.516;23.358;2023-04-07T04:24:40;87948.56;;;4.10;55.62
8047;BME280;67150;42.516;23.358;2023-04-07T04:27:07;87944.47;;;4.09;56.01
8047;BME280;67150;42.516;23.358;2023-04-07T04:29:34;87950.25;;;4.10;55.77
8047;BME280;67150;42.516;23.358;2023-04-07T04:32:01;87941.97;;;4.09;55.76
8047;BME280;67150;42.516;23.358;2023-04-07T04:34:29;87948.66;;;4.09;55.61
8047;BME280;67150;42.516;23.358;2023-04-07T04:36:56;87950.72;;;4.02;55.86
8047;BME280;67150;42.516;23.358;2023-04-07T04:39:25;87953.38;;;3.99;55.92
8047;BME280;67150;42.516;23.358;2023-04-07T04:41:52;87954.97;;;4.00;55.49
8047;BME280;67150;42.516;23.358;2023-04-07T04:44:19;87948.41;;;3.99;55.38
8047;BME280;67150;42.516;23.358;2023-04-07T04:46:47;87952.47;;;4.00;55.62
8047;BME280;67150;42.516;23.358;2023-04-07T04:49:15;87957.38;;;4.02;55.37
8047;BME280;67150;42.516;23.358;2023-04-07T04:51:43;87963.88;;;4.04;55.46
8047;BME280;67150;42.516;23.358;2023-04-07T04:54:11;87962.63;;;3.97;55.56
8047;BME280;67150;42.516;23.358;2023-04-07T04:56:40;87962.09;;;3.92;55.67
8047;BME280;67150;42.516;23.358;2023-04-07T04:59:08;87971.25;;;3.91;55.43
8047;BME280;67150;42.516;23.358;2023-04-07T05:01:35;87966.09;;;3.94;55.28
8047;BME280;67150;42.516;23.358;2023-04-07T05:04:02;87960.94;;;3.97;55.68
8047;BME280;67150;42.516;23.358;2023-04-07T05:06:29;87957.63;;;3.97;55.41
8047;BME280;67150;42.516;23.358;2023-04-07T05:08:57;87959.94;;;4.00;55.66
8047;BME280;67150;42.516;23.358;2023-04-07T05:11:24;87959.59;;;4.06;55.21
8047;BME280;67150;42.516;23.358;2023-04-07T05:13:53;87964.94;;;4.00;55.61
8047;BME280;67150;42.516;23.358;2023-04-07T05:16:20;87965.22;;;3.95;55.71
8047;BME280;67150;42.516;23.358;2023-04-07T05:18:47;87963.69;;;3.93;55.51
8047;BME280;67150;42.516;23.358;2023-04-07T05:21:14;87970.19;;;3.95;55.44
8047;BME280;67150;42.516;23.358;2023-04-07T05:23:42;87973.56;;;3.94;55.44
8047;BME280;67150;42.516;23.358;2023-04-07T05:26:09;87971.88;;;3.95;55.59
8047;BME280;67150;42.516;23.358;2023-04-07T05:28:37;87975.25;;;3.94;55.38
8047;BME280;67150;42.516;23.358;2023-04-07T05:31:05;87961.38;;;3.90;55.02
8047;BME280;67150;42.516;23.358;2023-04-07T05:33:32;87970.63;;;3.88;54.99
8047;BME280;67150;42.516;23.358;2023-04-07T05:36:00;87975.88;;;3.83;55.26
8047;BME280;67150;42.516;23.358;2023-04-07T05:38:27;87980.56;;;3.88;55.02
8047;BME280;67150;42.516;23.358;2023-04-07T05:40:54;87970.78;;;3.85;55.04
8047;BME280;67150;42.516;23.358;2023-04-07T05:43:22;87970.25;;;3.80;55.03
8047;BME280;67150;42.516;23.358;2023-04-07T05:45:49;87919.50;;;3.53;54.68
8047;BME280;67150;42.516;23.358;2023-04-07T05:48:18;87976.13;;;3.79;54.89
8047;BME280;67150;42.516;23.358;2023-04-07T05:50:45;87977.03;;;3.78;54.31
8047;BME280;67150;42.516;23.358;2023-04-07T05:53:13;87982.06;;;3.76;54.39
8047;BME280;67150;42.516;23.358;2023-04-07T05:55:41;87966.16;;;3.79;54.38
8047;BME280;67150;42.516;23.358;2023-04-07T05:58:09;87966.78;;;3.82;54.16
8047;BME280;67150;42.516;23.358;2023-04-07T06:00:36;87952.75;;;3.81;53.83
8047;BME280;67150;42.516;23.358;2023-04-07T06:03:03;87958.44;;;3.83;53.88
8047;BME280;67150;42.516;23.358;2023-04-07T06:05:32;87959.13;;;3.85;53.65
8047;BME280;67150;42.516;23.358;2023-04-07T06:08:00;87961.78;;;3.82;53.54
8047;BME280;67150;42.516;23.358;2023-04-07T06:10:27;87969.72;;;3.75;53.39
8047;BME280;67150;42.516;23.358;2023-04-07T06:12:54;87967.28;;;3.73;53.26
8047;BME280;67150;42.516;23.358;2023-04-07T06:15:22;87972.28;;;3.73;53.46
8047;BME280;67150;42.516;23.358;2023-04-07T06:17:49;87967.22;;;3.75;53.38
8047;BME280;67150;42.516;23.358;2023-04-07T06:20:16;87968.28;;;3.71;53.78
8047;BME280;67150;42.516;23.358;2023-04-07T06:22:47;87962.59;;;3.69;53.60
8047;BME280;67150;42.516;23.358;2023-04-07T06:25:15;87960.63;;;3.74;53.47
8047;BME280;67150;42.516;23.358;2023-04-07T06:27:42;87960.56;;;3.75;53.38
8047;BME280;67150;42.516;23.358;2023-04-07T06:30:10;87972.22;;;3.75;53.17
8047;BME280;67150;42.516;23.358;2023-04-07T06:32:38;87975.84;;;3.69;53.23
8047;BME280;67150;42.516;23.358;2023-04-07T06:35:06;87977.25;;;3.73;52.89
8047;BME280;67150;42.516;23.358;2023-04-07T06:37:33;87981.44;;;3.73;53.12
8047;BME280;67150;42.516;23.358;2023-04-07T06:40:02;87981.44;;;3.73;53.40
8047;BME280;67150;42.516;23.358;2023-04-07T06:42:29;87979.69;;;3.75;53.27
8047;BME280;67150;42.516;23.358;2023-04-07T06:44:56;87982.19;;;3.75;52.80
8047;BME280;67150;42.516;23.358;2023-04-07T06:47:24;87986.41;;;3.73;52.98
8047;BME280;67150;42.516;23.358;2023-04-07T06:49:51;87978.25;;;3.71;52.75
8047;BME280;67150;42.516;23.358;2023-04-07T06:52:18;87981.25;;;3.76;52.96
8047;BME280;67150;42.516;23.358;2023-04-07T06:54:46;87988.03;;;3.74;52.61
8047;BME280;67150;42.516;23.358;2023-04-07T06:57:15;87984.72;;;3.73;52.94
8047;BME280;67150;42.516;23.358;2023-04-07T06:59:42;87984.66;;;3.75;52.86
8047;BME280;67150;42.516;23.358;2023-04-07T07:02:09;87986.25;;;3.76;52.86
8047;BME280;67150;42.516;23.358;2023-04-07T07:04:36;87980.31;;;3.78;53.04
8047;BME280;67150;42.516;23.358;2023-04-07T07:07:04;87984.41;;;3.79;52.81
8047;BME280;67150;42.516;23.358;2023-04-07T07:09:31;87982.53;;;3.83;52.69
8047;BME280;67150;42.516;23.358;2023-04-07T07:11:58;87978.94;;;3.73;52.80
8047;BME280;67150;42.516;23.358;2023-04-07T07:14:28;87979.69;;;3.75;52.86
8047;BME280;67150;42.516;23.358;2023-04-07T07:16:55;87985.31;;;3.78;52.70
8047;BME280;67150;42.516;23.358;2023-04-07T07:19:23;87992.84;;;3.77;52.57
8047;BME280;67150;42.516;23.358;2023-04-07T07:21:50;87987.88;;;3.77;52.81
8047;BME280;67150;42.516;23.358;2023-04-07T07:24:17;87994.81;;;3.72;52.87
8047;BME280;67150;42.516;23.358;2023-04-07T07:26:44;87991.88;;;3.79;52.33
8047;BME280;67150;42.516;23.358;2023-04-07T07:29:11;88006.19;;;3.76;52.58
8047;BME280;67150;42.516;23.358;2023-04-07T07:31:40;88010.22;;;3.78;52.47
8047;BME280;67150;42.516;23.358;2023-04-07T07:34:08;87996.69;;;3.82;52.24
8047;BME280;67150;42.516;23.358;2023-04-07T07:36:35;88008.25;;;3.83;52.46
8047;BME280;67150;42.516;23.358;2023-04-07T07:39:02;88014.84;;;3.84;52.57
8047;BME280;67150;42.516;23.358;2023-04-07T07:41:30;88016.38;;;3.87;52.41
8047;BME280;67150;42.516;23.358;2023-04-07T07:43:57;88008.50;;;3.79;52.46
8047;BME280;67150;42.516;23.358;2023-04-07T07:46:24;88022.06;;;3.89;52.45
8047;BME280;67150;42.516;23.358;2023-04-07T07:48:53;88012.44;;;3.83;52.49
8047;BME280;67150;42.516;23.358;2023-04-07T07:51:21;88032.50;;;3.95;52.42
8047;BME280;67150;42.516;23.358;2023-04-07T07:53:48;88033.47;;;3.93;52.56
8047;BME280;67150;42.516;23.358;2023-04-07T07:56:15;88023.69;;;3.90;52.59
8047;BME280;67150;42.516;23.358;2023-04-07T07:58:43;88022.34;;;3.99;52.89
8047;BME280;67150;42.516;23.358;2023-04-07T08:01:10;88030.72;;;3.97;52.75
8047;BME280;67150;42.516;23.358;2023-04-07T08:03:37;88038.34;;;3.94;52.80
8047;BME280;67150;42.516;23.358;2023-04-07T08:06:06;88043.09;;;3.99;52.55
8047;BME280;67150;42.516;23.358;2023-04-07T08:08:34;88037.13;;;4.02;52.21
8047;BME280;67150;42.516;23.358;2023-04-07T08:11:01;88038.53;;;3.91;52.40
8047;BME280;67150;42.516;23.358;2023-04-07T08:13:29;88041.38;;;4.00;52.41
8047;BME280;67150;42.516;23.358;2023-04-07T08:15:56;88046.72;;;3.93;52.41
8047;BME280;67150;42.516;23.358;2023-04-07T08:18:23;88049.03;;;3.96;52.42
8047;BME280;67150;42.516;23.358;2023-04-07T08:20:51;88050.81;;;3.94;52.35
8047;BME280;67150;42.516;23.358;2023-04-07T08:23:19;88052.34;;;3.97;52.79
8047;BME280;67150;42.516;23.358;2023-04-07T08:25:47;88036.16;;;4.04;52.45
8047;BME280;67150;42.516;23.358;2023-04-07T08:28:14;88049.66;;;4.00;53.01
8047;BME280;67150;42.516;23.358;2023-04-07T08:30:41;88039.63;;;4.02;53.23
8047;BME280;67150;42.516;23.358;2023-04-07T08:33:08;88050.31;;;4.04;52.76
8047;BME280;67150;42.516;23.358;2023-04-07T08:35:36;88040.50;;;4.01;52.71
8047;BME280;67150;42.516;23.358;2023-04-07T08:38:03;88037.56;;;4.08;52.65
8047;BME280;67150;42.516;23.358;2023-04-07T08:40:32;88046.94;;;4.05;52.87
8047;BME280;67150;42.516;23.358;2023-04-07T08:43:00;88056.28;;;4.01;52.73
8047;BME280;67150;42.516;23.358;2023-04-07T08:45:32;88055.47;;;4.01;53.25
8047;BME280;67150;42.516;23.358;2023-04-07T08:48:02;88050.13;;;4.07;53.35
8047;BME280;67150;42.516;23.358;2023-04-07T08:50:31;88042.56;;;4.08;53.26
8047;BME280;67150;42.516;23.358;2023-04-07T08:53:01;88046.03;;;4.06;53.53
8047;BME280;67150;42.516;23.358;2023-04-07T08:55:34;88056.09;;;4.04;53.40
8047;BME280;67150;42.516;23.358;2023-04-07T08:58:02;88055.56;;;3.99;53.06
8047;BME280;67150;42.516;23.358;2023-04-07T09:00:30;88072.03;;;4.02;53.35
8047;BME280;67150;42.516;23.358;2023-04-07T09:02:59;88065.16;;;4.05;53.26
8047;BME280;67150;42.516;23.358;2023-04-07T09:05:28;88061.09;;;4.04;53.03
8047;BME280;67150;42.516;23.358;2023-04-07T09:07:56;88060.53;;;3.99;53.08
8047;BME280;67150;42.516;23.358;2023-04-07T09:10:24;88050.47;;;4.01;53.37
8047;BME280;67150;42.516;23.358;2023-04-07T09:12:52;88061.09;;;4.04;53.13
8047;BME280;67150;42.516;23.358;2023-04-07T09:15:20;88063.75;;;4.01;53.45
8047;BME280;67150;42.516;23.358;2023-04-07T09:17:48;88067.66;;;4.05;53.21
8047;BME280;67150;42.516;23.358;2023-04-07T09:20:15;88066.78;;;4.06;53.33
8047;BME280;67150;42.516;23.358;2023-04-07T09:22:43;88071.22;;;4.01;53.56
8047;BME280;67150;42.516;23.358;2023-04-07T09:25:15;88067.03;;;4.02;53.33
8047;BME280;67150;42.516;23.358;2023-04-07T09:28:00;88066.25;;;4.01;53.13
8047;BME280;67150;42.516;23.358;2023-04-07T09:30:28;88072.56;;;4.07;52.89
8047;BME280;67150;42.516;23.358;2023-04-07T09:32:56;88068.69;;;4.17;52.71
8047;BME280;67150;42.516;23.358;2023-04-07T09:35:24;88071.53;;;4.11;52.56
8047;BME280;67150;42.516;23.358;2023-04-07T09:38:03;88068.22;;;4.10;52.54
8047;BME280;67150;42.516;23.358;2023-04-07T09:40:31;88063.94;;;4.12;52.93
8047;BME280;67150;42.516;23.358;2023-04-07T09:43:01;88068.63;;;4.03;53.05
8047;BME280;67150;42.516;23.358;2023-04-07T09:45:30;88073.44;;;4.06;53.25
8047;BME280;67150;42.516;23.358;2023-04-07T09:47:57;88073.38;;;4.07;53.09
8047;BME280;67150;42.516;23.358;2023-04-07T09:50:35;88069.28;;;4.06;52.91
8047;BME280;67150;42.516;23.358;2023-04-07T09:53:03;88073.22;;;4.10;52.85
8047;BME280;67150;42.516;23.358;2023-04-07T09:55:30;88076.69;;;4.08;53.10
8047;BME280;67150;42.516;23.358;2023-04-07T09:58:00;88066.59;;;4.09;52.97
8047;BME280;67150;42.516;23.358;2023-04-07T10:00:27;88077.94;;;4.15;53.34
8047;BME280;67150;42.516;23.358;2023-04-07T10:02:55;88079.88;;;4.10;53.13
8047;BME280;67150;42.516;23.358;2023-04-07T10:05:24;88084.06;;;4.09;52.99
8047;BME280;67150;42.516;23.358;2023-04-07T10:07:51;88080.69;;;4.10;53.10
8047;BME280;67150;42.516;23.358;2023-04-07T10:10:19;88083.41;;;4.06;53.10
8047;BME280;67150;42.516;23.358;2023-04-07T10:12:49;88084.59;;;4.14;53.26
8047;BME280;67150;42.516;23.358;2023-04-07T10:15:19;88081.38;;;4.12;52.95
8047;BME280;67150;42.516;23.358;2023-04-07T10:17:48;88084.88;;;4.10;53.46
8047;BME280;67150;42.516;23.358;2023-04-07T10:20:17;88090.56;;;4.12;53.36
8047;BME280;67150;42.516;23.358;2023-04-07T10:22:47;88090.66;;;4.10;53.40
8047;BME280;67150;42.516;23.358;2023-04-07T10:25:18;88079.78;;;4.11;53.03
8047;BME280;67150;42.516;23.358;2023-04-07T10:27:50;88088.63;;;4.17;52.94
8047;BME280;67150;42.516;23.358;2023-04-07T10:30:23;88092.88;;;4.15;53.19
8047;BME280;67150;42.516;23.358;2023-04-07T10:32:52;88085.66;;;4.10;53.35
8047;BME280;67150;42.516;23.358;2023-04-07T10:35:20;88087.81;;;4.16;53.28
8047;BME280;67150;42.516;23.358;2023-04-07T10:38:09;88091.38;;;4.12;53.46
8047;BME280;67150;42.516;23.358;2023-04-07T10:40:38;88095.28;;;4.02;53.46
8047;BME280;67150;42.516;23.358;2023-04-07T10:43:07;88088.56;;;4.03;53.24
8047;BME280;67150;42.516;23.358;2023-04-07T10:45:53;88096.34;;;4.12;53.14
8047;BME280;67150;42.516;23.358;2023-04-07T10:48:27;88102.22;;;4.11;53.28
8047;BME280;67150;42.516;23.358;2023-04-07T10:51:14;88097.16;;;4.13;53.22
8047;BME280;67150;42.516;23.358;2023-04-07T10:57:10;88104.34;;;4.03;53.03
8047;BME280;67150;42.516;23.358;2023-04-07T10:59:40;88097.22;;;4.11;52.87
8047;BME280;67150;42.516;23.358;2023-04-07T11:02:38;88099.66;;;4.13;52.70
8047;BME280;67150;42.516;23.358;2023-04-07T11:05:06;88093.97;;;4.11;52.88
8047;BME280;67150;42.516;23.358;2023-04-07T11:07:47;88102.78;;;4.16;52.64
8047;BME280;67150;42.516;23.358;2023-04-07T11:10:16;88101.88;;;4.17;52.49
8047;BME280;67150;42.516;23.358;2023-04-07T11:12:57;88102.78;;;4.16;52.76
8047;BME280;67150;42.516;23.358;2023-04-07T11:15:25;88099.56;;;4.14;53.23
8047;BME280;67150;42.516;23.358;2023-04-07T11:18:14;88097.06;;;4.14;53.31
8047;BME280;67150;42.516;23.358;2023-04-07T11:20:50;88096.72;;;4.20;52.89
8047;BME280;67150;42.516;23.358;2023-04-07T11:23:19;88088.88;;;4.12;52.53
8047;BME280;67150;42.516;23.358;2023-04-07T11:25:49;88089.16;;;4.22;52.50
8047;BME280;67150;42.516;23.358;2023-04-07T11:28:17;88105.09;;;4.19;52.33
8047;BME280;67150;42.516;23.358;2023-04-07T11:30:46;88112.50;;;4.21;52.25
8047;BME280;67150;42.516;23.358;2023-04-07T11:33:17;88106.88;;;4.17;52.58
8047;BME280;67150;42.516;23.358;2023-04-07T11:35:49;88102.03;;;4.14;52.20
8047;BME280;67150;42.516;23.358;2023-04-07T11:38:16;88105.09;;;4.19;52.25
8047;BME280;67150;42.516;23.358;2023-04-07T11:40:44;88109.75;;;4.25;52.01
8047;BME280;67150;42.516;23.358;2023-04-07T11:43:16;88101.72;;;4.20;52.22
8047;BME280;67150;42.516;23.358;2023-04-07T11:45:44;88098.44;;;4.20;52.23
8047;BME280;67150;42.516;23.358;2023-04-07T11:48:31;88100.28;;;4.16;52.74
8047;BME280;67150;42.516;23.358;2023-04-07T11:50:58;88104.66;;;4.27;51.93
8047;BME280;67150;42.516;23.358;2023-04-07T11:53:27;88105.09;;;4.19;52.19
8047;BME280;67150;42.516;23.358;2023-04-07T11:56:02;88102.97;;;4.27;52.42
8047;BME280;67150;42.516;23.358;2023-04-07T11:58:29;88109.91;;;4.22;52.49
8047;BME280;67150;42.516;23.358;2023-04-07T12:00:57;88106.88;;;4.17;52.70
8047;BME280;67150;42.516;23.358;2023-04-07T12:03:31;88108.66;;;4.15;52.58
8047;BME280;67150;42.516;23.358;2023-04-07T12:05:59;88111.59;;;4.22;52.75
8047;BME280;67150;42.516;23.358;2023-04-07T12:08:37;88102.63;;;4.19;52.68
8047;BME280;67150;42.516;23.358;2023-04-07T12:11:05;88112.31;;;4.24;52.52
8047;BME280;67150;42.516;23.358;2023-04-07T12:13:34;88111.16;;;4.29;52.30
8047;BME280;67150;42.516;23.358;2023-04-07T12:16:02;88109.00;;;4.23;52.11
8047;BME280;67150;42.516;23.358;2023-04-07T12:18:31;88105.97;;;4.18;52.32
8047;BME280;67150;42.516;23.358;2023-04-07T12:21:01;88113.47;;;4.18;52.71
8047;BME280;67150;42.516;23.358;2023-04-07T12:23:28;88104.19;;;4.20;52.79
8047;BME280;67150;42.516;23.358;2023-04-07T12:25:55;88110.25;;;4.16;52.81
8047;BME280;67150;42.516;23.358;2023-04-07T12:28:22;88112.94;;;4.27;52.66
8047;BME280;67150;42.516;23.358;2023-04-07T12:30:50;88121.47;;;4.23;52.72
8047;BME280;67150;42.516;23.358;2023-04-07T12:33:17;88115.78;;;4.21;52.48
8047;BME280;67150;42.516;23.358;2023-04-07T12:35:46;88110.53;;;4.26;52.44
8047;BME280;67150;42.516;23.358;2023-04-07T12:38:13;88106.34;;;4.26;52.52
8047;BME280;67150;42.516;23.358;2023-04-07T12:40:42;88101.53;;;4.23;52.56
8047;BME280;67150;42.516;23.358;2023-04-07T12:43:09;88106.63;;;4.22;52.72
8047;BME280;67150;42.516;23.358;2023-04-07T12:45:36;88110.00;;;4.21;52.70
8047;BME280;67150;42.516;23.358;2023-04-07T12:48:03;88105.91;;;4.20;52.66
8047;BME280;67150;42.516;23.358;2023-04-07T12:50:31;88099.78;;;4.25;52.83
8047;BME280;67150;42.516;23.358;2023-04-07T12:52:59;88110.28;;;4.30;53.03
8047;BME280;67150;42.516;23.358;2023-04-07T12:55:28;88106.91;;;4.31;53.05
8047;BME280;67150;42.516;23.358;2023-04-07T12:57:58;88110.53;;;4.26;52.94
8047;BME280;67150;42.516;23.358;2023-04-07T13:00:25;88109.00;;;4.23;53.41
8047;BME280;67150;42.516;23.358;2023-04-07T13:02:52;88111.28;;;4.28;53.96
8047;BME280;67150;42.516;23.358;2023-04-07T13:05:20;88110.97;;;4.18;54.53
8047;BME280;67150;42.516;23.358;2023-04-07T13:07:47;88102.88;;;4.29;53.73
8047;BME280;67150;42.516;23.358;2023-04-07T13:10:16;88115.00;;;4.35;53.59
8047;BME280;67150;42.516;23.358;2023-04-07T13:12:43;88107.00;;;4.30;53.75
8047;BME280;67150;42.516;23.358;2023-04-07T13:15:11;88097.19;;;4.27;53.58
8047;BME280;67150;42.516;23.358;2023-04-07T13:17:38;88115.09;;;4.33;54.07
8047;BME280;67150;42.516;23.358;2023-04-07T13:20:06;88104.50;;;4.30;53.74
8047;BME280;67150;42.516;23.358;2023-04-07T13:22:34;88106.34;;;4.26;54.76